Time;durP1;ratioP1;P1;durP2;ratioP2;P2;SDS_P1;SDS_P2;PMS_P1;PMS_P2;Temp;Humidity;BMP_temperature;BMP_pressure;BME280_temperature;BME280_humidity;BME280_pressure;Samples;Min_cycle;Max_cycle;Signal;HPM_P1;HPM_P2
2022/05/24 00:06:10;;;;;;;4.97;2.40;;;14.40;99.90;;;;;;6249330;22;20472;-91
2022/05/24 00:08:36;;;;;;;;;;;14.40;99.90;;;;;;6197432;23;20012;-90
2022/05/24 00:11:02;;;;;;;6.43;2.70;;;14.40;99.90;;;;;;6221472;23;20344;-90
2022/05/24 00:13:31;;;;;;;5.32;2.60;;;14.30;99.90;;;;;;6224288;23;20020;-90
2022/05/24 00:15:56;;;;;;;5.03;2.67;;;14.40;99.90;;;;;;6196710;23;20023;-91
2022/05/24 00:18:27;;;;;;;5.65;2.70;;;14.40;99.90;;;;;;6197796;23;20019;-94
2022/05/24 00:20:58;;;;;;;6.03;3.20;;;14.30;99.90;;;;;;6227586;23;20027;-92
2022/05/24 00:23:59;;;;;;;6.57;3.15;;;14.30;99.90;;;;;;6228628;23;20023;-94
2022/05/24 00:26:31;;;;;;;6.28;3.25;;;14.30;99.90;;;;;;6198656;23;20020;-92
2022/05/24 00:44:58;;;;;;;5.15;2.50;;;14.10;99.90;;;;;;6188111;23;20029;-92
2022/05/24 00:47:46;;;;;;;4.75;2.33;;;14.10;99.90;;;;;;6162079;23;20048;-92
2022/05/24 00:50:23;;;;;;;5.22;2.45;;;14.00;99.90;;;;;;6138135;23;20084;-91
2022/05/24 00:52:56;;;;;;;5.75;2.45;;;14.10;99.90;;;;;;6138033;23;20017;-90
2022/05/24 00:55:22;;;;;;;5.68;2.92;;;14.00;99.90;;;;;;6137130;23;20021;-92
2022/05/24 00:58:23;;;;;;;4.70;2.40;;;14.00;99.90;;;;;;6148698;23;20028;-90
2022/05/24 01:00:49;;;;;;;6.05;3.00;;;14.00;99.90;;;;;;6139131;23;20017;-91
2022/05/24 01:03:17;;;;;;;4.75;2.75;;;13.90;99.90;;;;;;6136657;23;20024;-93
2022/05/24 01:05:43;;;;;;;5.13;2.63;;;13.90;99.90;;;;;;6136397;23;20048;-91
2022/05/24 03:49:42;;;;;;;8.13;4.35;;;13.70;99.90;;;;;;6194277;23;20029;-91
2022/05/24 03:52:09;;;;;;;7.75;4.15;;;13.70;99.90;;;;;;6224803;23;20016;-92
2022/05/24 03:54:34;;;;;;;9.23;4.47;;;13.70;99.90;;;;;;6176661;23;20016;-90
2022/05/24 04:04:37;;;;;;;9.30;4.78;;;13.70;99.90;;;;;;6247138;22;20024;-91
2022/05/24 04:07:03;;;;;;;11.98;6.18;;;13.80;99.90;;;;;;6195989;23;20023;-90
2022/05/24 04:09:33;;;;;;;11.02;5.90;;;13.80;99.90;;;;;;6221145;23;20071;-92
2022/05/24 04:11:59;;;;;;;11.55;6.30;;;13.80;99.90;;;;;;6221234;23;20012;-91
2022/05/24 04:14:24;;;;;;;12.48;6.28;;;13.80;99.90;;;;;;6197078;23;20068;-92
2022/05/24 04:16:52;;;;;;;10.07;5.22;;;13.80;99.90;;;;;;6196502;23;20043;-93
2022/05/24 05:21:57;;;;;;;10.68;4.15;;;14.10;99.90;;;;;;6184023;22;20104;-91
2022/05/24 05:24:24;;;;;;;7.55;4.10;;;14.20;99.90;;;;;;6158723;23;20028;-90
2022/05/24 05:26:57;;;;;;;7.95;4.13;;;14.10;99.90;;;;;;6135695;23;20040;-90
2022/05/24 05:35:07;;;;;;;8.95;4.22;;;14.20;99.90;;;;;;6244461;23;20016;-88
2022/05/24 05:37:36;;;;;;;7.50;4.05;;;14.20;99.90;;;;;;6193334;23;20023;-89
2022/05/24 05:40:35;;;;;;;7.75;4.15;;;14.20;99.90;;;;;;6196293;23;20052;-91
2022/05/24 05:43:12;;;;;;;8.23;4.18;;;14.30;99.90;;;;;;6195013;23;20099;-90
2022/05/24 05:45:38;;;;;;;8.55;4.03;;;14.20;99.90;;;;;;6195316;23;20086;-90
2022/05/24 06:21:45;;;;;;;8.55;4.30;;;14.20;99.90;;;;;;6203380;23;20465;-88
2022/05/24 06:24:10;;;;;;;9.00;4.38;;;14.20;99.90;;;;;;6221750;23;20385;-88
2022/05/24 06:26:36;;;;;;;9.00;4.88;;;14.20;99.90;;;;;;6244893;23;20078;-88
2022/05/24 06:29:04;;;;;;;7.88;4.28;;;14.10;99.90;;;;;;6219281;23;20016;-90
2022/05/24 06:31:30;;;;;;;8.13;4.57;;;14.10;99.90;;;;;;6219117;23;20098;-88
2022/05/24 06:33:56;;;;;;;8.40;4.30;;;14.10;99.90;;;;;;6219347;23;20341;-88
2022/05/24 06:36:21;;;;;;;7.90;4.10;;;14.10;99.90;;;;;;6218849;23;20259;-87
2022/05/24 06:38:47;;;;;;;9.57;4.00;;;14.10;99.90;;;;;;6244597;23;20016;-87
2022/05/24 06:41:13;;;;;;;6.90;3.93;;;14.10;99.90;;;;;;6219364;23;20313;-87
2022/05/24 06:43:38;;;;;;;7.50;3.77;;;14.00;99.90;;;;;;6244341;23;20020;-86
2022/05/24 06:46:07;;;;;;;7.30;3.70;;;14.00;99.90;;;;;;6244396;23;20251;-87
2022/05/24 06:48:40;;;;;;;6.75;3.25;;;14.00;99.90;;;;;;6218866;23;20012;-87
2022/05/24 06:51:10;;;;;;;6.75;2.70;;;14.00;99.90;;;;;;6244364;23;20335;-86
2022/05/24 06:53:38;;;;;;;6.85;3.30;;;14.00;99.90;;;;;;6194120;23;20016;-88
2022/05/24 06:56:11;;;;;;;5.85;3.10;;;14.00;99.90;;;;;;6219093;23;20457;-89
2022/05/24 06:58:37;;;;;;;8.07;4.00;;;14.00;99.90;;;;;;6219366;23;20035;-89
2022/05/24 07:03:54;;;;;;;9.07;3.60;;;14.00;99.90;;;;;;6244228;23;20051;-89
2022/05/24 07:06:20;;;;;;;;;;;14.10;99.90;;;;;;6219615;23;20389;-89
2022/05/24 07:08:47;;;;;;;6.75;3.50;;;14.00;99.90;;;;;;6219218;23;19916;-88
2022/05/24 07:11:18;;;;;;;6.32;3.85;;;14.00;99.90;;;;;;6219439;23;20020;-88
2022/05/24 07:13:44;;;;;;;8.13;3.67;;;14.00;99.90;;;;;;6244481;23;20012;-89
2022/05/24 07:16:10;;;;;;;9.02;4.05;;;14.00;99.90;;;;;;6218956;23;20039;-87
2022/05/24 07:18:37;;;;;;;8.20;4.55;;;14.00;99.90;;;;;;6244190;23;20035;-89
2022/05/24 07:21:04;;;;;;;10.57;4.93;;;14.00;99.90;;;;;;6193371;23;20087;-88
2022/05/24 07:23:38;;;;;;;8.40;4.75;;;14.10;99.90;;;;;;6218768;23;20414;-89
2022/05/24 07:26:30;;;;;;;8.00;4.60;;;14.10;99.90;;;;;;6219085;23;20449;-90
2022/05/24 07:28:55;;;;;;;10.57;4.82;;;14.20;99.90;;;;;;6188595;23;20048;-89
2022/05/24 07:31:24;;;;;;;7.72;4.20;;;14.20;99.90;;;;;;6218919;23;20016;-91
2022/05/24 07:34:27;;;;;;;9.63;4.88;;;14.20;99.90;;;;;;6218832;23;20147;-92
2022/05/24 07:37:00;;;;;;;8.55;4.15;;;14.30;99.90;;;;;;6194038;23;20445;-88
2022/05/24 07:39:41;;;;;;;6.28;3.35;;;14.30;99.90;;;;;;6238121;23;20016;-93
2022/05/24 07:47:21;;;;;;;7.60;3.17;;;14.30;99.90;;;;;;6244237;23;20106;-90
2022/05/24 07:54:57;;;;;;;5.82;2.40;;;14.30;99.90;;;;;;6308548;22;20023;-88
2022/05/24 07:57:23;;;;;;;3.83;2.03;;;14.30;99.90;;;;;;6256567;22;20025;-89
2022/05/24 07:59:57;;;;;;;4.65;2.58;;;14.30;99.90;;;;;;6256252;22;20250;-89
2022/05/24 08:02:23;;;;;;;5.28;2.20;;;14.30;99.90;;;;;;6256531;22;20022;-87
2022/05/24 08:04:52;;;;;;;5.50;2.40;;;14.30;99.90;;;;;;6281710;22;20019;-88
2022/05/24 08:07:26;;;;;;;3.83;2.10;;;14.20;99.90;;;;;;6256654;22;20011;-89
2022/05/24 08:09:59;;;;;;;4.88;2.30;;;14.20;99.90;;;;;;6256432;22;20042;-90
2022/05/24 08:12:25;;;;;;;6.00;2.42;;;14.20;99.90;;;;;;6255173;22;20019;-89
2022/05/24 08:14:52;;;;;;;4.70;2.20;;;14.20;99.90;;;;;;6256704;22;20010;-91
2022/05/24 08:17:29;;;;;;;4.68;2.13;;;14.20;99.90;;;;;;6281546;22;20070;-89
2022/05/24 08:20:33;;;;;;;4.10;2.30;;;14.20;99.90;;;;;;6258469;22;20091;-89
2022/05/24 08:23:23;;;;;;;4.18;1.95;;;14.10;99.90;;;;;;6236904;22;20389;-90
2022/05/24 08:26:10;;;;;;;4.53;2.38;;;14.10;99.90;;;;;;6284610;22;20026;-92
2022/05/24 08:28:43;;;;;;;4.38;2.30;;;14.10;99.90;;;;;;6260605;22;20019;-90
2022/05/24 08:34:44;;;;;;;4.85;2.53;;;14.00;99.90;;;;;;6281569;22;20027;-90
2022/05/24 10:02:31;;;;;;;2.50;0.90;;;13.60;99.90;;;;;;6213944;22;20024;-91
2022/05/24 11:05:05;;;;;;;2.70;1.10;;;13.80;99.90;;;;;;6358810;22;20023;-91
2022/05/24 11:07:34;;;;;;;2.15;1.00;;;13.90;99.90;;;;;;6251669;22;20019;-88
2022/05/24 11:10:33;;;;;;;1.80;0.80;;;14.00;99.90;;;;;;6265441;22;20023;-88
2022/05/24 11:13:08;;;;;;;1.67;0.75;;;14.30;99.90;;;;;;6254833;22;20092;-89
2022/05/24 11:15:40;;;;;;;2.50;1.15;;;14.50;99.90;;;;;;6248575;22;20012;-90
2022/05/24 11:21:36;;;;;;;2.85;1.20;;;14.80;99.90;;;;;;6271641;22;20030;-89
2022/05/24 11:24:59;;;;;;;2.63;1.10;;;15.00;99.90;;;;;;6270882;22;20030;-93
2022/05/24 11:27:46;;;;;;;2.80;1.00;;;15.00;99.90;;;;;;6166585;22;20017;-92
2022/05/24 11:30:30;;;;;;;2.00;0.80;;;15.00;99.90;;;;;;6246012;22;20015;-88
2022/05/24 11:33:13;;;;;;;2.13;0.80;;;14.80;99.90;;;;;;6245764;22;20445;-89
2022/05/24 11:35:56;;;;;;;1.60;0.90;;;14.60;99.90;;;;;;6246432;22;20026;-90
2022/05/24 11:38:30;;;;;;;2.60;0.82;;;14.50;99.90;;;;;;6246232;22;20066;-89
2022/05/24 11:41:19;;;;;;;2.00;0.90;;;14.40;99.90;;;;;;6245380;22;20019;-90
2022/05/24 11:43:44;;;;;;;2.40;1.00;;;14.30;99.90;;;;;;6245652;22;20020;-89
2022/05/24 11:47:11;;;;;;;;;;;;;;;;;;;;;
2022/05/24 11:50:09;;;;;;;2.53;1.08;;;14.20;99.90;;;;;;6272858;22;20250;-90
2022/05/24 11:52:57;;;;;;;1.75;0.77;;;14.10;99.90;;;;;;6245607;22;20118;-91
2022/05/24 11:55:56;;;;;;;2.17;0.88;;;14.30;99.90;;;;;;6245717;22;20016;-89
2022/05/24 11:58:51;;;;;;;1.33;0.70;;;14.60;99.90;;;;;;6245915;22;20440;-91
2022/05/24 12:18:59;;;;;;;1.05;0.57;;;14.90;99.90;;;;;;6280229;22;20027;-88
2022/05/24 12:22:18;;;;;;;1.98;0.60;;;14.70;99.90;;;;;;6276129;22;20459;-88
2022/05/24 12:24:57;;;;;;;1.02;0.57;;;14.50;99.90;;;;;;6251525;22;20340;-88
2022/05/24 12:27:48;;;;;;;1.30;0.50;;;14.30;99.90;;;;;;6249988;22;20015;-90
2022/05/24 12:30:29;;;;;;;0.80;0.52;;;14.30;99.90;;;;;;6250610;22;20015;-88
2022/05/24 12:33:13;;;;;;;1.10;0.65;;;14.30;99.90;;;;;;6251029;22;20043;-89
2022/05/24 12:36:13;;;;;;;2.15;0.88;;;14.30;99.90;;;;;;6278782;22;20111;-89
2022/05/24 12:45:05;;;;;;;1.73;0.80;;;14.50;99.90;;;;;;6241363;22;20097;-90
2022/05/24 12:47:57;;;;;;;1.25;0.63;;;14.50;99.90;;;;;;6160070;22;20056;-89
2022/05/24 12:51:22;;;;;;;1.10;0.68;;;14.50;99.90;;;;;;6130056;23;20028;-91
2022/05/24 12:54:01;;;;;;;1.50;0.70;;;14.50;99.90;;;;;;6126017;23;20024;-88
2022/05/24 12:56:27;;;;;;;1.25;0.60;;;14.40;99.90;;;;;;6149252;23;20501;-91
2022/05/24 12:59:34;;;;;;;1.57;0.60;;;14.40;99.90;;;;;;6099513;23;20056;-88
2022/05/24 13:02:14;;;;;;;2.00;0.93;;;14.70;99.90;;;;;;6148583;23;20260;-88
2022/05/24 13:05:21;;;;;;;1.35;0.45;;;15.00;99.90;;;;;;6156029;23;20380;-89
2022/05/24 13:10:52;;;;;;;1.25;0.50;;;15.30;99.90;;;;;;6184224;22;20077;-88
2022/05/24 13:13:22;;;;;;;1.88;0.70;;;15.30;99.90;;;;;;6159966;23;20025;-88
2022/05/24 13:15:58;;;;;;;0.98;0.50;;;15.30;99.90;;;;;;6165635;23;20017;-88
2022/05/24 13:18:25;;;;;;;2.17;0.60;;;15.20;99.90;;;;;;6163501;23;20013;-88
2022/05/24 13:34:31;;;;;;;0.55;0.30;;;15.30;99.90;;;;;;6410727;22;20340;-89
2022/05/24 14:24:40;;;;;;;;;;;;;;;;;;;;;
2022/05/24 14:42:57;;;;;;;2.50;0.85;;;16.10;99.90;;;;;;6271110;22;20019;-87
2022/05/24 14:45:23;;;;;;;2.85;1.00;;;16.20;99.90;;;;;;6244681;22;20496;-87
2022/05/24 14:48:32;;;;;;;2.57;0.80;;;16.10;99.90;;;;;;6244530;22;20022;-89
2022/05/24 14:50:58;;;;;;;1.40;0.77;;;16.20;99.90;;;;;;6245148;22;20685;-89
2022/05/24 14:53:23;;;;;;;1.63;0.82;;;16.20;99.90;;;;;;6245980;22;20102;-88
2022/05/24 14:55:49;;;;;;;1.60;0.80;;;16.30;99.90;;;;;;6245685;22;20107;-88
2022/05/24 15:01:34;;;;;;;3.10;0.90;;;16.40;99.90;;;;;;6269925;22;20030;-88
2022/05/24 15:04:00;;;;;;;1.55;0.80;;;16.40;99.90;;;;;;6245415;22;20106;-89
2022/05/24 15:06:26;;;;;;;3.38;1.20;;;16.40;99.90;;;;;;6245716;22;20055;-90
2022/05/24 15:17:34;;;;;;;2.05;0.90;;;16.40;99.90;;;;;;6271798;22;20023;-88
2022/05/24 15:20:06;;;;;;;1.60;0.90;;;16.30;99.90;;;;;;6272004;22;20020;-90
2022/05/24 15:23:31;;;;;;;1.35;0.80;;;16.40;99.90;;;;;;6249796;22;20012;-92
2022/05/24 20:33:28;;;;;;;1.63;0.77;;;12.90;99.90;;;;;;6272076;22;20027;-90
2022/05/24 20:38:30;;;;;;;1.30;0.73;;;12.90;99.90;;;;;;6434246;22;20017;-92
2022/05/24 20:40:59;;;;;;;1.23;0.68;;;12.90;99.90;;;;;;6407431;22;20022;-92
2022/05/24 20:43:25;;;;;;;1.75;0.77;;;12.80;99.90;;;;;;6407482;22;20018;-91
2022/05/24 20:45:51;;;;;;;1.67;0.70;;;12.90;99.90;;;;;;6407653;22;20017;-89
2022/05/24 20:48:17;;;;;;;1.30;0.57;;;12.80;99.90;;;;;;6413433;22;20017;-89
2022/05/24 20:50:43;;;;;;;1.25;0.50;;;12.90;99.90;;;;;;6407954;22;20062;-92
2022/05/24 20:53:09;;;;;;;2.27;1.30;;;12.80;99.90;;;;;;6407339;22;20014;-92
2022/05/24 20:55:35;;;;;;;1.17;0.50;;;12.80;99.90;;;;;;6407359;22;20005;-91
2022/05/24 20:58:00;;;;;;;1.02;0.52;;;12.80;99.90;;;;;;6406881;22;20143;-88
2022/05/24 21:00:37;;;;;;;1.43;0.83;;;12.80;99.90;;;;;;6406738;22;20130;-89
2022/05/24 21:03:02;;;;;;;1.70;0.50;;;12.80;99.90;;;;;;6406592;22;20251;-89
2022/05/24 21:05:28;;;;;;;0.70;0.47;;;12.80;99.90;;;;;;6406145;22;20055;-88
2022/05/24 21:07:54;;;;;;;1.77;0.80;;;12.70;99.90;;;;;;6406887;22;20024;-88
2022/05/24 21:13:17;;;;;;;1.50;0.60;;;12.70;99.90;;;;;;6242804;22;20512;-87
2022/05/24 21:15:43;;;;;;;1.20;0.50;;;12.70;99.90;;;;;;6379279;22;20099;-89
2022/05/24 21:18:41;;;;;;;1.45;0.70;;;12.70;99.90;;;;;;6352225;22;20020;-87
2022/05/24 21:21:40;;;;;;;1.08;0.60;;;12.70;99.90;;;;;;6367934;22;20051;-90
2022/05/24 21:24:11;;;;;;;1.63;0.57;;;12.70;99.90;;;;;;6351663;22;20068;-88
2022/05/24 23:28:41;;;;;;;2.75;1.30;;;12.00;99.90;;;;;;6244149;22;20023;-90
2022/05/24 23:36:18;;;;;;;3.17;1.00;;;12.00;99.90;;;;;;6303152;22;21426;-92
2022/05/24 23:45:48;;;;;;;2.45;1.25;;;11.90;99.90;;;;;;6305149;22;20071;-94
2022/05/24 23:48:14;;;;;;;2.63;1.10;;;11.80;99.90;;;;;;6359833;22;20022;-93
2022/05/24 23:51:00;;;;;;;3.05;1.40;;;11.70;99.90;;;;;;6386698;22;20071;-93
2022/05/24 23:53:25;;;;;;;3.00;1.30;;;11.60;99.90;;;;;;6359143;22;20015;-92
2022/05/24 23:55:53;;;;;;;2.55;1.08;;;11.50;99.90;;;;;;6386363;22;20023;-93
2022/05/24 23:58:18;;;;;;;2.47;1.10;;;11.40;99.90;;;;;;6386256;22;20022;-93
